This is the latest recevied weather packets stored in our database for station/object KC9YTT-13. If no packets are shown the sender has not sent any weather packets the latest 10 day(s).
| Time | Temp. | Humidity | Pressure | Rain* | Wind** | Luminosity | Snow |
|---|---|---|---|---|---|---|---|
| 1777976115 | 11.67° C | 55% | 1006.2 hPa | 0 mm | - | - | - |
| 1777972507 | 11.67° C | 54% | 1005.7 hPa | 0 mm | - | - | - |
| 1777971904 | 12.22° C | 57% | 1005.6 hPa | 0 mm | - | - | - |
| 1777969499 | 11.67° C | 58% | 1004.7 hPa | 0 mm | - | - | - |
| 1777964687 | 12.78° C | 59% | 1003.5 hPa | 0 mm | - | - | - |
| 1777963485 | 12.78° C | 57% | 1003.2 hPa | 0 mm | - | - | - |
| 1777962883 | 13.33° C | 56% | 1003 hPa | 0 mm | - | - | - |
| 1777962282 | 13.33° C | 57% | 1002.6 hPa | 0 mm | - | - | - |
| 1777961078 | 13.89° C | 56% | 1002.7 hPa | 0 mm | - | - | - |
| 1777960476 | 13.89° C | 55% | 1002.7 hPa | 0 mm | - | - | - |
| 1777905848 | 20.56° C | 55% | 1000.7 hPa | 0 mm | - | - | - |
| 1777905247 | 20° C | 57% | 1000.8 hPa | 0 mm | - | - | - |
| 1777904645 | 19.44° C | 57% | 1000.8 hPa | 0 mm | - | - | - |
| 1777904044 | 18.89° C | 58% | 1001 hPa | 0 mm | - | - | - |
| 1777902841 | 17.22° C | 60% | 1001.2 hPa | 0 mm | - | - | - |
| 1777900435 | 14.44° C | 60% | 1002 hPa | 0 mm | - | - | - |
| 1777899834 | 14.44° C | 58% | 1002 hPa | 0 mm | - | - | - |
| 1777899232 | 12.78° C | 58% | 1002.1 hPa | 0 mm | - | - | - |
| 1777897428 | 11.67° C | 61% | 1002.3 hPa | 0 mm | - | - | - |
| 1777886600 | 11.67° C | 66% | 1003.1 hPa | 0 mm | - | - | - |
| 1777885998 | 11.11° C | 66% | 1003.1 hPa | 0 mm | - | - | - |
| 1777885397 | 11.67° C | 69% | 1003.1 hPa | 0 mm | - | - | - |
| 1777882990 | 11.67° C | 68% | 1003.2 hPa | 0 mm | - | - | - |
| 1777880584 | 12.22° C | 66% | 1003.4 hPa | 0 mm | - | - | - |
| 1777879983 | 12.22° C | 66% | 1003.6 hPa | 0 mm | - | - | - |
* Rain latest hour (hover to see other rain measurements)
** Current wind speed in m/s (hover to see current wind gust speed)